createdAt,value
2023-05-02T00:02:17.876Z,69.69
2023-05-02T00:04:46.766Z,69.65
2023-05-02T00:07:14.940Z,69.47
2023-05-02T00:09:43.151Z,69.33
2023-05-02T00:12:11.393Z,69.06
2023-05-02T00:14:39.453Z,68.76
2023-05-02T00:17:07.846Z,68.55
2023-05-02T00:19:40.306Z,68.38
2023-05-02T00:22:08.685Z,68.15
2023-05-02T00:24:36.969Z,68.03
2023-05-02T00:27:06.462Z,68.03
2023-05-02T00:29:34.627Z,67.89
2023-05-02T00:32:02.817Z,68.05
2023-05-02T00:34:31.790Z,67.91
2023-05-02T00:36:59.971Z,68.09
2023-05-02T00:39:28.150Z,68.13
2023-05-02T00:41:59.834Z,68.34
2023-05-02T00:44:28.788Z,68.36
2023-05-02T00:46:57.185Z,68.24
2023-05-02T00:49:25.334Z,68.25
2023-05-02T00:51:54.533Z,68.34
2023-05-02T00:54:22.706Z,68.23
2023-05-02T00:56:51.079Z,67.73
2023-05-02T00:59:19.458Z,67.66
2023-05-02T01:01:54.108Z,67.52
2023-05-02T01:04:29.000Z,67.27
2023-05-02T01:07:03.718Z,67.24
2023-05-02T01:10:00.710Z,67.12
2023-05-02T01:12:33.570Z,66.93
2023-05-02T01:15:06.756Z,66.68
2023-05-02T01:17:36.060Z,66.66
2023-05-02T01:20:07.608Z,66.53
2023-05-02T01:22:38.917Z,66.39
2023-05-02T01:25:31.052Z,66.51
2023-05-02T01:28:06.394Z,66.54
2023-05-02T01:30:36.948Z,66.17
2023-05-02T01:33:05.897Z,66.32
2023-05-02T01:35:35.654Z,66.32
2023-05-02T01:38:05.156Z,66.33
2023-05-02T01:40:34.257Z,66.72
2023-05-02T01:43:05.167Z,66.48
2023-05-02T01:45:36.328Z,66.51
2023-05-02T01:48:07.086Z,66.43
2023-05-02T01:50:36.564Z,66.55
2023-05-02T01:53:05.249Z,67.15
2023-05-02T01:55:35.778Z,67.91
2023-05-02T01:58:05.393Z,68.32
2023-05-02T02:00:34.657Z,68.99
2023-05-02T02:03:08.206Z,69.06
2023-05-02T02:05:36.869Z,69.42
2023-05-02T02:08:05.243Z,69.77
2023-05-02T02:10:37.750Z,69.54
2023-05-02T02:13:16.130Z,69.06
2023-05-02T02:15:47.675Z,69.04
2023-05-02T02:18:21.663Z,68.68
2023-05-02T02:20:51.085Z,68.42
2023-05-02T02:23:20.385Z,68.47
2023-05-02T02:25:50.016Z,68.64
2023-05-02T02:28:18.190Z,68.55
2023-05-02T02:30:46.361Z,68.80
2023-05-02T02:33:14.561Z,69.00
2023-05-02T02:35:46.546Z,69.39
2023-05-02T02:38:28.466Z,69.71
2023-05-02T02:41:02.662Z,70.00
2023-05-02T02:43:34.462Z,70.44
2023-05-02T02:46:15.588Z,70.40
2023-05-02T02:48:47.471Z,70.56
2023-05-02T02:51:30.315Z,70.90
2023-05-02T02:54:19.023Z,71.56
2023-05-02T02:57:15.269Z,71.80
2023-05-02T02:59:52.084Z,72.52
2023-05-02T03:02:23.292Z,72.92
2023-05-02T03:04:51.766Z,73.22
2023-05-02T03:07:20.147Z,73.75
2023-05-02T03:09:48.731Z,73.95
2023-05-02T03:12:19.976Z,74.37
2023-05-02T03:14:49.162Z,74.73
2023-05-02T03:17:18.679Z,75.05
2023-05-02T03:19:47.580Z,75.49
2023-05-02T03:22:16.142Z,75.62
2023-05-02T03:24:44.311Z,76.01
2023-05-02T03:27:13.204Z,76.23
2023-05-02T03:29:42.085Z,76.32
2023-05-02T03:32:11.486Z,76.59
2023-05-02T03:34:41.917Z,76.74
2023-05-02T03:37:10.494Z,76.90
2023-05-02T03:39:38.972Z,77.39
2023-05-02T03:42:07.265Z,77.58
2023-05-02T03:44:35.530Z,77.52
2023-05-02T03:47:03.789Z,77.77
2023-05-02T03:49:35.056Z,77.83
2023-05-02T03:52:04.249Z,77.75
2023-05-02T03:54:33.347Z,77.87
2023-05-02T03:57:03.864Z,77.92
2023-05-02T03:59:35.413Z,77.91
2023-05-02T04:02:07.509Z,78.00
2023-05-02T04:04:41.368Z,78.25
2023-05-02T04:07:18.361Z,78.16
2023-05-02T04:09:48.909Z,78.14
2023-05-02T04:12:17.572Z,78.64
2023-05-02T04:14:49.253Z,78.40
2023-05-02T04:17:18.757Z,78.88
2023-05-02T04:19:49.673Z,78.79
2023-05-02T04:22:19.075Z,78.41
2023-05-02T04:24:52.366Z,78.64
2023-05-02T04:27:20.844Z,78.93
2023-05-02T04:29:50.667Z,79.14
2023-05-02T04:32:20.568Z,78.90
2023-05-02T04:34:49.555Z,78.98
2023-05-02T04:37:18.548Z,79.49
2023-05-02T04:39:47.845Z,79.51
2023-05-02T04:42:20.014Z,79.82
2023-05-02T04:44:56.068Z,79.36
2023-05-02T04:47:24.360Z,79.13
2023-05-02T04:49:52.821Z,78.86
2023-05-02T04:52:21.001Z,78.68
2023-05-02T04:54:49.171Z,78.54
2023-05-02T04:57:17.443Z,78.36
2023-05-02T04:59:50.220Z,77.96
2023-05-02T05:02:18.495Z,77.90
2023-05-02T05:04:47.402Z,78.02
2023-05-02T05:07:16.479Z,77.93
2023-05-02T05:09:46.905Z,77.59
2023-05-02T05:12:15.386Z,77.48
2023-05-02T05:14:44.593Z,77.37
2023-05-02T05:17:13.482Z,77.33
2023-05-02T05:19:42.666Z,77.33
2023-05-02T05:22:11.373Z,77.11
2023-05-02T05:24:40.035Z,77.17
2023-05-02T05:27:08.414Z,76.97
2023-05-02T05:29:37.200Z,77.12
2023-05-02T05:32:06.533Z,77.07
2023-05-02T05:34:35.490Z,76.93
2023-05-02T05:37:03.866Z,77.15
2023-05-02T05:39:32.861Z,76.98
2023-05-02T05:42:02.984Z,76.84
2023-05-02T05:44:31.864Z,77.17
2023-05-02T05:47:01.126Z,76.76
2023-05-02T05:49:30.053Z,77.01
2023-05-02T05:51:58.737Z,76.84
2023-05-02T05:54:27.114Z,76.91
2023-05-02T05:56:55.289Z,76.49
2023-05-02T05:59:23.562Z,76.51
2023-05-02T06:01:52.042Z,76.27
2023-05-02T06:04:22.561Z,76.16
2023-05-02T06:06:54.039Z,76.30
2023-05-02T06:09:22.298Z,76.35
2023-05-02T06:11:50.572Z,76.18
2023-05-02T06:14:19.056Z,76.36
2023-05-02T06:16:49.272Z,75.95
2023-05-02T06:19:17.339Z,75.59
2023-05-02T06:21:45.524Z,75.47
2023-05-02T06:24:13.799Z,75.37
2023-05-02T06:26:42.167Z,74.75
2023-05-02T06:29:10.436Z,74.51
2023-05-02T06:31:38.760Z,74.23
2023-05-02T06:34:07.200Z,74.09
2023-05-02T06:36:35.364Z,74.00
2023-05-02T06:39:03.644Z,73.75
2023-05-02T06:41:31.706Z,73.62
2023-05-02T06:44:00.002Z,73.52
2023-05-02T06:46:31.952Z,73.54
2023-05-02T06:49:00.416Z,73.50
2023-05-02T06:51:28.600Z,73.21
2023-05-02T06:53:56.668Z,72.70
2023-05-02T06:56:26.272Z,72.07
2023-05-02T06:58:54.338Z,71.76
2023-05-02T07:01:22.538Z,71.57
2023-05-02T07:03:51.253Z,71.67
2023-05-02T07:06:19.615Z,71.14
2023-05-02T07:08:47.845Z,70.78
2023-05-02T07:11:16.329Z,70.50
2023-05-02T07:13:44.613Z,70.16
2023-05-02T07:16:12.875Z,69.77
2023-05-02T07:18:42.589Z,69.69
2023-05-02T07:21:10.866Z,69.87
2023-05-02T07:23:38.926Z,69.23
2023-05-02T07:26:07.407Z,68.64
2023-05-02T07:28:35.449Z,68.55
2023-05-02T07:31:03.750Z,68.21
2023-05-02T07:33:31.823Z,68.18
2023-05-02T07:36:02.081Z,68.02
2023-05-02T07:38:30.214Z,67.71
2023-05-02T07:40:59.615Z,67.29
2023-05-02T07:43:28.325Z,66.63
2023-05-02T07:45:56.732Z,66.40
2023-05-02T07:48:27.051Z,66.60
2023-05-02T07:50:56.205Z,65.78
2023-05-02T07:53:24.900Z,65.27
2023-05-02T07:55:52.953Z,64.84
2023-05-02T07:58:21.130Z,64.70
2023-05-02T08:00:49.301Z,64.67
2023-05-02T08:03:17.853Z,64.61
2023-05-02T08:05:46.769Z,64.03
2023-05-02T08:08:15.046Z,63.86
2023-05-02T08:10:43.539Z,63.43
2023-05-02T08:13:12.618Z,63.43
2023-05-02T08:15:40.865Z,63.01
2023-05-02T08:18:09.020Z,62.92
2023-05-02T08:20:37.341Z,62.59
2023-05-02T08:23:05.387Z,61.91
2023-05-02T08:25:33.799Z,61.68
2023-05-02T08:28:02.066Z,61.79
2023-05-02T08:30:30.236Z,61.99
2023-05-02T08:32:58.377Z,61.59
2023-05-02T08:35:26.990Z,61.65
2023-05-02T08:37:55.065Z,61.37
2023-05-02T08:40:33.909Z,61.07
2023-05-02T08:43:07.291Z,60.73
2023-05-02T08:45:38.226Z,60.53
2023-05-02T08:48:14.014Z,60.07
2023-05-02T08:50:45.681Z,60.17
2023-05-02T08:53:17.352Z,60.31
2023-05-02T08:55:46.463Z,60.04
2023-05-02T08:58:15.505Z,59.56
2023-05-02T09:00:46.235Z,59.49
2023-05-02T09:03:34.467Z,59.13
2023-05-02T09:06:10.209Z,58.92
2023-05-02T09:08:38.684Z,58.87
2023-05-02T09:11:08.221Z,58.62
2023-05-02T09:13:39.305Z,58.22
2023-05-02T09:16:11.324Z,57.81
2023-05-02T09:18:44.550Z,57.52
2023-05-02T09:21:19.652Z,57.12
2023-05-02T09:23:56.520Z,56.66
2023-05-02T09:26:32.853Z,56.17
2023-05-02T09:29:03.051Z,56.17
2023-05-02T09:34:16.600Z,55.89
2023-05-02T09:36:52.252Z,54.95
2023-05-02T09:39:26.236Z,54.52
2023-05-02T09:41:54.976Z,53.77
2023-05-02T09:44:25.365Z,53.75
2023-05-02T09:46:55.179Z,54.03
2023-05-02T09:49:45.339Z,53.47
2023-05-02T09:52:16.079Z,53.04
2023-05-02T09:54:46.755Z,52.59
2023-05-02T09:57:15.204Z,52.98
2023-05-02T09:59:58.119Z,53.00
2023-05-02T10:02:26.551Z,52.77
2023-05-02T10:04:56.211Z,52.68
2023-05-02T10:07:25.813Z,52.79
2023-05-02T10:09:55.223Z,52.83
2023-05-02T10:12:24.718Z,52.79
2023-05-02T10:15:01.173Z,52.87
2023-05-02T10:17:38.193Z,52.15
2023-05-02T10:20:07.870Z,52.42
2023-05-02T10:22:37.071Z,51.76
2023-05-02T10:25:05.737Z,51.68
2023-05-02T10:27:34.036Z,51.70
2023-05-02T10:30:04.791Z,51.54
2023-05-02T10:32:34.232Z,51.47
2023-05-02T10:35:06.392Z,51.15
2023-05-02T10:37:36.784Z,51.10
2023-05-02T10:40:06.502Z,50.87
2023-05-02T10:42:53.475Z,50.44
2023-05-02T10:45:30.650Z,49.82
2023-05-02T10:48:20.749Z,49.73
2023-05-02T10:51:01.561Z,49.21
2023-05-02T10:53:36.657Z,48.57
2023-05-02T10:56:27.723Z,48.57
2023-05-02T10:59:27.264Z,48.67
2023-05-02T11:01:55.866Z,47.11
2023-05-02T11:04:24.420Z,46.54
2023-05-02T11:07:02.527Z,46.66
2023-05-02T11:09:32.927Z,46.04
2023-05-02T11:12:02.153Z,45.95
2023-05-02T11:14:39.437Z,45.37
2023-05-02T11:17:09.244Z,44.67
2023-05-02T11:19:43.565Z,43.90
2023-05-02T11:22:17.990Z,44.21
2023-05-02T11:24:50.744Z,44.15
2023-05-02T11:27:31.358Z,44.56
2023-05-02T11:30:10.041Z,44.59
2023-05-02T11:32:52.174Z,44.30
2023-05-02T11:35:27.423Z,43.92
2023-05-02T11:38:00.055Z,43.43
2023-05-02T11:40:28.956Z,43.15
2023-05-02T11:42:59.168Z,43.21
2023-05-02T11:45:36.510Z,43.37
2023-05-02T11:48:08.881Z,42.89
2023-05-02T11:50:49.578Z,42.87
2023-05-02T11:53:24.429Z,43.04
2023-05-02T11:56:01.226Z,42.70
2023-05-02T11:58:32.983Z,42.40
2023-05-02T12:01:14.514Z,42.43
2023-05-02T12:03:43.053Z,41.77
2023-05-02T12:06:14.406Z,41.16
2023-05-02T12:08:44.106Z,40.84
2023-05-02T12:11:17.058Z,40.42
2023-05-02T12:13:50.520Z,40.14
2023-05-02T12:16:19.823Z,40.03
2023-05-02T12:18:48.563Z,39.75
2023-05-02T12:21:18.037Z,39.44
2023-05-02T12:23:46.633Z,39.51
2023-05-02T12:26:19.524Z,39.75
2023-05-02T12:28:51.875Z,39.20
2023-05-02T12:31:20.938Z,39.10
2023-05-02T12:33:50.989Z,39.19
2023-05-02T12:36:19.918Z,38.95
2023-05-02T12:39:00.059Z,38.91
2023-05-02T12:41:35.473Z,38.82
2023-05-02T12:44:04.561Z,38.77
2023-05-02T12:46:33.103Z,38.66
2023-05-02T12:49:06.347Z,38.85
2023-05-02T12:51:34.923Z,38.66
2023-05-02T12:54:06.581Z,38.62
2023-05-02T12:56:41.902Z,38.54
2023-05-02T12:59:24.936Z,38.33
2023-05-02T13:01:53.107Z,38.37
2023-05-02T13:04:21.403Z,38.35
2023-05-02T13:06:49.807Z,38.53
2023-05-02T13:09:18.949Z,38.07
2023-05-02T13:11:47.746Z,38.44
2023-05-02T13:14:15.908Z,38.50
2023-05-02T13:16:44.035Z,38.51
2023-05-02T13:19:12.708Z,38.12
2023-05-02T13:21:41.140Z,38.07
2023-05-02T13:24:09.218Z,38.13
2023-05-02T13:26:37.277Z,38.58
2023-05-02T13:29:06.285Z,38.39
2023-05-02T13:31:34.497Z,38.35
2023-05-02T13:34:04.768Z,38.56
2023-05-02T13:36:32.940Z,38.58
2023-05-02T13:39:01.930Z,38.60
2023-05-02T13:41:30.102Z,38.26
2023-05-02T13:43:58.373Z,38.51
2023-05-02T13:46:27.012Z,38.55
2023-05-02T13:48:55.132Z,38.65
2023-05-02T13:51:25.047Z,38.71
2023-05-02T13:53:53.220Z,38.57
2023-05-02T13:56:21.593Z,38.21
2023-05-02T13:58:49.662Z,38.25
2023-05-02T14:01:17.795Z,38.33
2023-05-02T14:03:46.584Z,37.96
2023-05-02T14:06:14.919Z,37.91
2023-05-02T14:08:43.792Z,38.05
2023-05-02T14:11:11.960Z,37.99
2023-05-02T14:13:40.030Z,38.01
2023-05-02T14:16:08.416Z,38.35
2023-05-02T14:18:36.689Z,38.41
2023-05-02T14:21:05.344Z,38.89
2023-05-02T14:23:34.132Z,38.80
2023-05-02T14:26:02.959Z,38.89
2023-05-02T14:28:31.427Z,38.90
2023-05-02T14:30:59.797Z,39.59
2023-05-02T14:33:27.966Z,39.71
2023-05-02T14:35:56.035Z,39.85
2023-05-02T14:38:24.307Z,39.80
2023-05-02T14:40:52.600Z,39.79
2023-05-02T14:43:21.489Z,40.02
2023-05-02T14:45:49.646Z,40.49
2023-05-02T14:48:17.953Z,41.21
2023-05-02T14:50:46.195Z,41.82
2023-05-02T14:53:14.575Z,42.30
2023-05-02T14:55:42.751Z,42.73
2023-05-02T14:58:11.021Z,43.16
2023-05-02T15:00:39.364Z,43.36
2023-05-02T15:03:09.997Z,43.69
2023-05-02T15:05:38.499Z,43.87
2023-05-02T15:08:07.292Z,44.16
2023-05-02T15:10:39.596Z,44.52
2023-05-02T15:13:09.041Z,44.87
2023-05-02T15:15:37.687Z,45.15
2023-05-02T15:18:06.070Z,45.32
2023-05-02T15:20:34.513Z,45.67
2023-05-02T15:23:03.831Z,45.85
2023-05-02T15:25:32.183Z,45.96
2023-05-02T15:28:02.518Z,46.49
2023-05-02T15:30:30.673Z,46.28
2023-05-02T15:32:58.783Z,46.35
2023-05-02T15:35:26.919Z,46.30
2023-05-02T15:37:56.221Z,46.43
2023-05-02T15:40:26.336Z,46.75
2023-05-02T15:42:54.826Z,46.95
2023-05-02T15:45:23.518Z,46.76
2023-05-02T15:47:52.229Z,47.05
2023-05-02T15:50:20.457Z,47.24
2023-05-02T15:52:48.630Z,47.24
2023-05-02T15:55:17.114Z,47.12
2023-05-02T15:57:45.288Z,47.17
2023-05-02T16:00:17.035Z,47.50
2023-05-02T16:02:45.319Z,47.66
2023-05-02T16:05:13.683Z,47.61
2023-05-02T16:07:41.857Z,47.63
2023-05-02T16:10:10.291Z,47.63
2023-05-02T16:12:38.408Z,47.55
2023-05-02T16:15:08.557Z,47.82
2023-05-02T16:17:36.759Z,47.83
2023-05-02T16:20:06.404Z,48.01
2023-05-02T16:22:34.995Z,48.34
2023-05-02T16:25:03.466Z,48.79
2023-05-02T16:27:31.542Z,49.12
2023-05-02T16:30:00.009Z,49.27
2023-05-02T16:32:28.969Z,49.33
2023-05-02T16:34:57.088Z,49.53
2023-05-02T16:37:25.151Z,49.76
2023-05-02T16:39:53.324Z,49.98
2023-05-02T16:42:21.493Z,50.21
2023-05-02T16:44:49.671Z,50.47
2023-05-02T16:47:18.361Z,50.64
2023-05-02T16:49:46.535Z,50.72
2023-05-02T16:52:15.219Z,50.91
2023-05-02T16:54:43.284Z,51.11
2023-05-02T16:57:11.555Z,51.33
2023-05-02T16:59:39.724Z,51.64
2023-05-02T17:02:07.833Z,51.88
2023-05-02T17:04:36.180Z,52.35
2023-05-02T17:07:04.351Z,52.57
2023-05-02T17:09:33.475Z,52.85
2023-05-02T17:12:03.043Z,53.14
2023-05-02T17:14:32.546Z,53.21
2023-05-02T17:17:01.571Z,53.46
2023-05-02T17:19:29.916Z,53.49
2023-05-02T17:21:58.601Z,53.58
2023-05-02T17:24:26.770Z,53.81
2023-05-02T17:26:54.947Z,53.95
2023-05-02T17:29:23.116Z,54.16
2023-05-02T17:31:51.415Z,54.35
2023-05-02T17:34:19.667Z,54.44
2023-05-02T17:36:47.734Z,54.57
2023-05-02T17:39:16.215Z,54.82
2023-05-02T17:41:44.498Z,54.97
2023-05-02T17:44:12.661Z,55.31
2023-05-02T17:46:40.852Z,55.34
2023-05-02T17:49:09.211Z,55.68
2023-05-02T17:51:37.385Z,55.92
2023-05-02T17:54:05.983Z,56.01
2023-05-02T17:56:37.563Z,56.19
2023-05-02T17:59:05.805Z,56.29
2023-05-02T18:01:33.993Z,56.45
2023-05-02T18:04:04.222Z,56.59
2023-05-02T18:06:32.629Z,56.78
2023-05-02T18:09:00.938Z,56.97
2023-05-02T18:11:38.848Z,57.14
2023-05-02T18:14:07.321Z,57.35
2023-05-02T18:16:36.623Z,57.54
2023-05-02T18:19:05.001Z,57.96
2023-05-02T18:21:35.479Z,58.08
2023-05-02T18:24:03.802Z,58.28
2023-05-02T18:26:32.174Z,58.46
2023-05-02T18:29:00.347Z,58.59
2023-05-02T18:31:28.576Z,58.95
2023-05-02T18:33:56.798Z,59.19
2023-05-02T18:36:26.092Z,59.38
2023-05-02T18:38:57.546Z,59.53
2023-05-02T18:41:25.715Z,59.72
2023-05-02T18:43:54.808Z,59.85
2023-05-02T18:46:23.073Z,60.06
2023-05-02T18:48:51.353Z,60.32
2023-05-02T18:51:19.423Z,60.60
2023-05-02T18:53:49.241Z,60.71
2023-05-02T18:56:17.715Z,60.79
2023-05-02T18:58:46.403Z,61.15
2023-05-02T19:01:16.084Z,61.33
2023-05-02T19:03:44.648Z,61.30
2023-05-02T19:06:13.622Z,61.61
2023-05-02T19:08:42.185Z,61.86
2023-05-02T19:11:10.359Z,61.97
2023-05-02T19:13:39.019Z,62.19
2023-05-02T19:16:11.960Z,62.26
2023-05-02T19:18:40.807Z,62.54
2023-05-02T19:21:13.874Z,62.75
2023-05-02T19:23:43.159Z,62.83
2023-05-02T19:26:15.863Z,63.00
2023-05-02T19:28:44.976Z,63.17
2023-05-02T19:31:17.749Z,63.25
2023-05-02T19:33:52.390Z,63.27
2023-05-02T19:36:24.840Z,63.43
2023-05-02T19:38:54.648Z,63.45
2023-05-02T19:41:22.813Z,63.66
2023-05-02T19:43:51.499Z,63.80
2023-05-02T19:46:19.795Z,63.85
2023-05-02T19:48:48.360Z,64.08
2023-05-02T19:51:25.557Z,64.25
2023-05-02T19:53:54.440Z,64.29
2023-05-02T19:56:25.562Z,64.69
2023-05-02T19:58:54.049Z,64.82
2023-05-02T20:01:22.481Z,64.87
2023-05-02T20:03:51.197Z,64.90
2023-05-02T20:06:19.591Z,64.84
2023-05-02T20:08:47.760Z,65.13
2023-05-02T20:11:15.828Z,64.93
2023-05-02T20:13:44.509Z,65.12
2023-05-02T20:16:13.988Z,64.95
2023-05-02T20:18:42.184Z,65.00
2023-05-02T20:21:10.561Z,64.74
2023-05-02T20:23:40.367Z,64.74
2023-05-02T20:26:08.545Z,64.72
2023-05-02T20:28:37.908Z,64.61
2023-05-02T20:31:06.012Z,64.62
2023-05-02T20:33:44.341Z,64.69
2023-05-02T20:36:14.997Z,64.40
2023-05-02T20:38:44.986Z,64.18
2023-05-02T20:41:14.309Z,64.39
2023-05-02T20:43:45.347Z,64.15
2023-05-02T20:46:17.509Z,64.26
2023-05-02T20:48:45.760Z,63.99
2023-05-02T20:51:16.324Z,63.86
2023-05-02T20:53:44.958Z,63.99
2023-05-02T20:56:13.336Z,63.79
2023-05-02T20:58:41.523Z,63.78
2023-05-02T21:01:09.712Z,63.72
2023-05-02T21:03:40.898Z,63.52
2023-05-02T21:06:09.124Z,63.33
2023-05-02T21:08:37.477Z,63.32
2023-05-02T21:11:15.688Z,63.47
2023-05-02T21:13:44.073Z,63.36
2023-05-02T21:16:19.560Z,63.35
2023-05-02T21:18:48.300Z,63.55
2023-05-02T21:21:16.579Z,63.35
2023-05-02T21:23:44.777Z,63.03
2023-05-02T21:26:13.014Z,63.17
2023-05-02T21:28:41.287Z,63.03
2023-05-02T21:31:10.823Z,63.03
2023-05-02T21:33:38.963Z,63.10
2023-05-02T21:36:07.651Z,63.20
2023-05-02T21:38:35.919Z,63.10
2023-05-02T21:41:05.429Z,63.12
2023-05-02T21:43:36.874Z,63.12
2023-05-02T21:46:05.045Z,63.02
2023-05-02T21:48:34.134Z,63.16
2023-05-02T21:51:09.284Z,63.08
2023-05-02T21:53:38.066Z,63.06
2023-05-02T21:56:07.361Z,63.19
2023-05-02T21:58:35.845Z,63.26
2023-05-02T22:01:04.142Z,63.31
2023-05-02T22:03:34.818Z,63.29
2023-05-02T22:06:06.638Z,63.20
2023-05-02T22:08:35.400Z,63.42
2023-05-02T22:11:08.292Z,63.41
2023-05-02T22:13:37.115Z,63.47
2023-05-02T22:16:06.806Z,63.64
2023-05-02T22:18:35.046Z,63.57
2023-05-02T22:21:03.961Z,63.66
2023-05-02T22:23:32.111Z,63.74
2023-05-02T22:26:00.386Z,63.58
2023-05-02T22:28:28.547Z,63.93
2023-05-02T22:30:56.724Z,63.82
2023-05-02T22:33:25.199Z,64.03
2023-05-02T22:35:53.277Z,63.85
2023-05-02T22:38:21.440Z,63.78
2023-05-02T22:40:49.616Z,63.54
2023-05-02T22:43:17.932Z,63.44
2023-05-02T22:45:46.576Z,63.53
2023-05-02T22:48:14.650Z,63.57
2023-05-02T22:50:43.634Z,63.60
2023-05-02T22:53:11.709Z,63.56
2023-05-02T22:55:39.876Z,63.56
2023-05-02T22:58:08.061Z,63.62
2023-05-02T23:00:36.736Z,63.81
2023-05-02T23:03:05.309Z,63.71
2023-05-02T23:05:33.492Z,63.83
2023-05-02T23:08:01.558Z,63.80
2023-05-02T23:10:29.733Z,63.93
2023-05-02T23:12:57.902Z,64.18
2023-05-02T23:15:26.076Z,64.31
2023-05-02T23:17:54.260Z,64.43
2023-05-02T23:20:23.382Z,64.50
2023-05-02T23:22:51.817Z,64.45
2023-05-02T23:25:20.197Z,64.59
2023-05-02T23:27:49.002Z,64.50
2023-05-02T23:30:17.049Z,64.35
2023-05-02T23:32:45.957Z,64.39
2023-05-02T23:35:14.209Z,64.21
2023-05-02T23:37:42.386Z,64.04
2023-05-02T23:40:10.770Z,64.00
2023-05-02T23:42:40.531Z,64.04
2023-05-02T23:45:09.688Z,64.02
2023-05-02T23:47:38.368Z,64.08
2023-05-02T23:50:07.535Z,64.20
2023-05-02T23:52:35.937Z,64.20
2023-05-02T23:55:10.502Z,64.15
2023-05-02T23:57:39.440Z,64.08
